Calgary, Canada
Current Conditions -  °F | °C
As of 10:00 AM on Monday 22 Dec 2014 (Local Time) from CYYC Reporting Station
Broken Clouds Broken Clouds  
Wind Chill: 27°   Ceiling: 10000
Heat Index: 27°   Visibility: 40mi
Dew Point: 19°   Wind: 0mph
Humidity: 74%   Direction: NA
Pressure: 29.85"   Gusts: NA
Location:  51.05°N, 114.06°W
Report Text: CYYC 221700Z 00000KT 40SM BKN100 BKN190 M03/M07 A2985 RMK AC6AC1 SLP160
Loading
Personal Weather Stations






























Interactive Weather Map New forecast layout! Learn more

10-Day Weather Forecast

Advertisements
Track Severe Weather on mobile